sensor_id;sensor_type;location;lat;lon;timestamp;P1;durP1;ratioP1;P2;durP2;ratioP2
21192;SDS011;10754;51.106;7.164;2022-12-28T00:00:18;4.73;;;1.67;;
21192;SDS011;10754;51.106;7.164;2022-12-28T00:02:44;1.70;;;1.30;;
21192;SDS011;10754;51.106;7.164;2022-12-28T00:05:09;3.33;;;1.30;;
21192;SDS011;10754;51.106;7.164;2022-12-28T00:07:35;5.23;;;1.70;;
21192;SDS011;10754;51.106;7.164;2022-12-28T00:10:00;2.73;;;1.17;;
21192;SDS011;10754;51.106;7.164;2022-12-28T00:12:26;3.63;;;1.20;;
21192;SDS011;10754;51.106;7.164;2022-12-28T00:14:52;2.03;;;1.43;;
21192;SDS011;10754;51.106;7.164;2022-12-28T00:17:18;3.13;;;1.23;;
21192;SDS011;10754;51.106;7.164;2022-12-28T00:19:43;4.13;;;1.73;;
21192;SDS011;10754;51.106;7.164;2022-12-28T00:22:09;3.60;;;1.30;;
21192;SDS011;10754;51.106;7.164;2022-12-28T00:24:34;1.87;;;1.10;;
21192;SDS011;10754;51.106;7.164;2022-12-28T00:27:00;3.97;;;1.90;;
21192;SDS011;10754;51.106;7.164;2022-12-28T00:29:25;2.73;;;1.30;;
21192;SDS011;10754;51.106;7.164;2022-12-28T00:31:51;3.37;;;1.43;;
21192;SDS011;10754;51.106;7.164;2022-12-28T00:34:16;2.00;;;1.17;;
21192;SDS011;10754;51.106;7.164;2022-12-28T00:36:42;3.30;;;1.43;;
21192;SDS011;10754;51.106;7.164;2022-12-28T00:39:07;2.97;;;1.40;;
21192;SDS011;10754;51.106;7.164;2022-12-28T00:41:33;2.17;;;1.27;;
21192;SDS011;10754;51.106;7.164;2022-12-28T00:43:58;3.17;;;1.43;;
21192;SDS011;10754;51.106;7.164;2022-12-28T00:46:24;2.83;;;1.80;;
21192;SDS011;10754;51.106;7.164;2022-12-28T00:48:49;2.80;;;1.20;;
21192;SDS011;10754;51.106;7.164;2022-12-28T00:51:16;3.03;;;1.17;;
21192;SDS011;10754;51.106;7.164;2022-12-28T00:53:43;3.93;;;1.20;;
21192;SDS011;10754;51.106;7.164;2022-12-28T00:56:09;4.77;;;1.40;;
21192;SDS011;10754;51.106;7.164;2022-12-28T00:58:37;2.80;;;1.40;;
21192;SDS011;10754;51.106;7.164;2022-12-28T01:01:03;3.20;;;1.37;;
21192;SDS011;10754;51.106;7.164;2022-12-28T01:03:30;2.53;;;1.20;;
21192;SDS011;10754;51.106;7.164;2022-12-28T01:05:56;3.83;;;1.20;;
21192;SDS011;10754;51.106;7.164;2022-12-28T01:08:22;3.07;;;1.27;;
21192;SDS011;10754;51.106;7.164;2022-12-28T01:10:48;2.37;;;1.10;;
21192;SDS011;10754;51.106;7.164;2022-12-28T01:13:13;2.60;;;1.50;;
21192;SDS011;10754;51.106;7.164;2022-12-28T01:15:39;2.20;;;1.30;;
21192;SDS011;10754;51.106;7.164;2022-12-28T01:18:04;3.07;;;1.57;;
21192;SDS011;10754;51.106;7.164;2022-12-28T01:20:30;2.80;;;1.00;;
21192;SDS011;10754;51.106;7.164;2022-12-28T01:22:55;3.17;;;1.60;;
21192;SDS011;10754;51.106;7.164;2022-12-28T01:25:21;3.60;;;1.57;;
21192;SDS011;10754;51.106;7.164;2022-12-28T01:27:46;3.83;;;1.63;;
21192;SDS011;10754;51.106;7.164;2022-12-28T01:30:12;3.07;;;1.40;;
21192;SDS011;10754;51.106;7.164;2022-12-28T01:32:38;1.77;;;1.03;;
21192;SDS011;10754;51.106;7.164;2022-12-28T01:35:04;3.70;;;1.13;;
21192;SDS011;10754;51.106;7.164;2022-12-28T01:37:30;2.87;;;1.37;;
21192;SDS011;10754;51.106;7.164;2022-12-28T01:39:55;5.23;;;1.87;;
21192;SDS011;10754;51.106;7.164;2022-12-28T01:42:21;3.63;;;1.60;;
21192;SDS011;10754;51.106;7.164;2022-12-28T01:44:50;4.13;;;1.30;;
21192;SDS011;10754;51.106;7.164;2022-12-28T01:47:34;1.93;;;1.00;;
21192;SDS011;10754;51.106;7.164;2022-12-28T01:50:09;2.50;;;1.33;;
21192;SDS011;10754;51.106;7.164;2022-12-28T01:52:40;2.90;;;1.30;;
21192;SDS011;10754;51.106;7.164;2022-12-28T01:55:14;3.00;;;1.10;;
21192;SDS011;10754;51.106;7.164;2022-12-28T01:57:46;2.43;;;1.27;;
21192;SDS011;10754;51.106;7.164;2022-12-28T02:00:16;2.13;;;1.20;;
21192;SDS011;10754;51.106;7.164;2022-12-28T02:02:45;2.97;;;1.43;;
21192;SDS011;10754;51.106;7.164;2022-12-28T02:05:33;1.40;;;1.17;;
21192;SDS011;10754;51.106;7.164;2022-12-28T02:08:04;3.23;;;1.37;;
21192;SDS011;10754;51.106;7.164;2022-12-28T02:10:40;2.23;;;1.30;;
21192;SDS011;10754;51.106;7.164;2022-12-28T02:13:06;2.73;;;1.40;;
21192;SDS011;10754;51.106;7.164;2022-12-28T02:15:32;2.67;;;1.33;;
21192;SDS011;10754;51.106;7.164;2022-12-28T02:17:57;3.37;;;1.57;;
21192;SDS011;10754;51.106;7.164;2022-12-28T02:20:24;3.33;;;1.47;;
21192;SDS011;10754;51.106;7.164;2022-12-28T02:31:13;3.07;;;1.63;;
21192;SDS011;10754;51.106;7.164;2022-12-28T02:33:50;2.90;;;1.30;;
21192;SDS011;10754;51.106;7.164;2022-12-28T02:36:31;1.60;;;1.30;;
21192;SDS011;10754;51.106;7.164;2022-12-28T02:39:04;2.47;;;1.13;;
21192;SDS011;10754;51.106;7.164;2022-12-28T02:41:34;2.90;;;1.40;;
21192;SDS011;10754;51.106;7.164;2022-12-28T02:44:04;2.07;;;1.10;;
21192;SDS011;10754;51.106;7.164;2022-12-28T02:46:30;2.47;;;1.57;;
21192;SDS011;10754;51.106;7.164;2022-12-28T02:58:19;2.73;;;1.40;;
21192;SDS011;10754;51.106;7.164;2022-12-28T03:06:38;2.10;;;1.10;;
21192;SDS011;10754;51.106;7.164;2022-12-28T03:09:57;1.40;;;0.87;;
21192;SDS011;10754;51.106;7.164;2022-12-28T03:12:35;2.30;;;1.03;;
21192;SDS011;10754;51.106;7.164;2022-12-28T03:15:09;4.00;;;1.30;;
21192;SDS011;10754;51.106;7.164;2022-12-28T03:17:39;3.30;;;1.30;;
21192;SDS011;10754;51.106;7.164;2022-12-28T03:20:26;2.57;;;1.07;;
21192;SDS011;10754;51.106;7.164;2022-12-28T03:23:15;1.37;;;1.00;;
21192;SDS011;10754;51.106;7.164;2022-12-28T03:26:03;2.27;;;1.27;;
21192;SDS011;10754;51.106;7.164;2022-12-28T03:28:51;1.97;;;1.07;;
21192;SDS011;10754;51.106;7.164;2022-12-28T03:31:37;3.07;;;1.20;;
21192;SDS011;10754;51.106;7.164;2022-12-28T03:34:03;4.63;;;1.03;;
21192;SDS011;10754;51.106;7.164;2022-12-28T03:36:38;1.57;;;0.87;;
21192;SDS011;10754;51.106;7.164;2022-12-28T03:39:31;1.97;;;1.30;;
21192;SDS011;10754;51.106;7.164;2022-12-28T03:45:11;2.20;;;1.10;;
21192;SDS011;10754;51.106;7.164;2022-12-28T03:47:43;3.27;;;1.50;;
21192;SDS011;10754;51.106;7.164;2022-12-28T03:50:10;2.40;;;1.20;;
21192;SDS011;10754;51.106;7.164;2022-12-28T03:52:36;3.07;;;1.00;;
21192;SDS011;10754;51.106;7.164;2022-12-28T03:55:02;2.20;;;1.00;;
21192;SDS011;10754;51.106;7.164;2022-12-28T03:57:28;3.00;;;1.40;;
21192;SDS011;10754;51.106;7.164;2022-12-28T03:59:54;2.43;;;1.37;;
21192;SDS011;10754;51.106;7.164;2022-12-28T04:02:19;2.97;;;1.30;;
21192;SDS011;10754;51.106;7.164;2022-12-28T04:04:45;2.70;;;1.10;;
21192;SDS011;10754;51.106;7.164;2022-12-28T04:07:10;2.20;;;1.30;;
21192;SDS011;10754;51.106;7.164;2022-12-28T04:09:36;1.70;;;1.00;;
21192;SDS011;10754;51.106;7.164;2022-12-28T04:12:02;3.53;;;1.33;;
21192;SDS011;10754;51.106;7.164;2022-12-28T04:14:27;1.10;;;0.80;;
21192;SDS011;10754;51.106;7.164;2022-12-28T04:16:53;2.63;;;1.10;;
21192;SDS011;10754;51.106;7.164;2022-12-28T04:19:18;2.17;;;1.00;;
21192;SDS011;10754;51.106;7.164;2022-12-28T04:21:44;2.00;;;1.10;;
21192;SDS011;10754;51.106;7.164;2022-12-28T04:24:09;2.20;;;1.13;;
21192;SDS011;10754;51.106;7.164;2022-12-28T04:26:35;1.53;;;0.80;;
21192;SDS011;10754;51.106;7.164;2022-12-28T04:29:00;2.13;;;1.10;;
21192;SDS011;10754;51.106;7.164;2022-12-28T04:31:26;1.47;;;1.10;;
21192;SDS011;10754;51.106;7.164;2022-12-28T04:33:55;1.53;;;0.80;;
21192;SDS011;10754;51.106;7.164;2022-12-28T04:36:21;1.23;;;0.90;;
21192;SDS011;10754;51.106;7.164;2022-12-28T04:38:47;1.50;;;1.00;;
21192;SDS011;10754;51.106;7.164;2022-12-28T04:41:12;1.57;;;1.17;;
21192;SDS011;10754;51.106;7.164;2022-12-28T04:43:38;1.37;;;0.80;;
21192;SDS011;10754;51.106;7.164;2022-12-28T04:46:09;2.53;;;1.17;;
21192;SDS011;10754;51.106;7.164;2022-12-28T04:48:36;1.60;;;0.90;;
21192;SDS011;10754;51.106;7.164;2022-12-28T04:51:06;2.30;;;1.00;;
21192;SDS011;10754;51.106;7.164;2022-12-28T04:53:37;1.63;;;0.63;;
21192;SDS011;10754;51.106;7.164;2022-12-28T04:56:03;2.57;;;0.90;;
21192;SDS011;10754;51.106;7.164;2022-12-28T04:58:30;3.33;;;1.00;;
21192;SDS011;10754;51.106;7.164;2022-12-28T05:01:00;2.00;;;1.00;;
21192;SDS011;10754;51.106;7.164;2022-12-28T05:03:34;2.70;;;1.07;;
21192;SDS011;10754;51.106;7.164;2022-12-28T05:06:01;2.70;;;1.20;;
21192;SDS011;10754;51.106;7.164;2022-12-28T05:08:31;2.40;;;0.80;;
21192;SDS011;10754;51.106;7.164;2022-12-28T05:11:02;2.33;;;0.90;;
21192;SDS011;10754;51.106;7.164;2022-12-28T05:13:29;0.90;;;0.90;;
21192;SDS011;10754;51.106;7.164;2022-12-28T05:15:59;1.87;;;1.10;;
21192;SDS011;10754;51.106;7.164;2022-12-28T05:18:26;1.13;;;0.90;;
21192;SDS011;10754;51.106;7.164;2022-12-28T05:20:59;4.97;;;1.27;;
21192;SDS011;10754;51.106;7.164;2022-12-28T05:23:31;2.17;;;1.53;;
21192;SDS011;10754;51.106;7.164;2022-12-28T05:25:58;1.53;;;0.93;;
21192;SDS011;10754;51.106;7.164;2022-12-28T05:28:24;1.67;;;0.77;;
21192;SDS011;10754;51.106;7.164;2022-12-28T05:30:50;1.50;;;0.70;;
21192;SDS011;10754;51.106;7.164;2022-12-28T05:33:16;2.30;;;0.90;;
21192;SDS011;10754;51.106;7.164;2022-12-28T05:35:42;1.77;;;0.70;;
21192;SDS011;10754;51.106;7.164;2022-12-28T05:38:08;2.07;;;0.87;;
21192;SDS011;10754;51.106;7.164;2022-12-28T05:40:34;1.47;;;0.77;;
21192;SDS011;10754;51.106;7.164;2022-12-28T05:42:59;2.03;;;0.93;;
21192;SDS011;10754;51.106;7.164;2022-12-28T05:45:25;1.27;;;0.80;;
21192;SDS011;10754;51.106;7.164;2022-12-28T05:47:50;3.47;;;0.90;;
21192;SDS011;10754;51.106;7.164;2022-12-28T05:50:18;0.97;;;0.60;;
21192;SDS011;10754;51.106;7.164;2022-12-28T05:52:44;2.03;;;0.73;;
21192;SDS011;10754;51.106;7.164;2022-12-28T05:55:09;0.60;;;0.50;;
21192;SDS011;10754;51.106;7.164;2022-12-28T05:57:35;1.93;;;0.83;;
21192;SDS011;10754;51.106;7.164;2022-12-28T06:00:01;2.30;;;0.80;;
21192;SDS011;10754;51.106;7.164;2022-12-28T06:02:27;0.93;;;0.47;;
21192;SDS011;10754;51.106;7.164;2022-12-28T06:04:53;0.67;;;0.40;;
21192;SDS011;10754;51.106;7.164;2022-12-28T06:07:18;0.90;;;0.50;;
21192;SDS011;10754;51.106;7.164;2022-12-28T06:09:44;1.37;;;0.50;;
21192;SDS011;10754;51.106;7.164;2022-12-28T06:12:10;1.23;;;0.60;;
21192;SDS011;10754;51.106;7.164;2022-12-28T06:14:35;0.80;;;0.40;;
21192;SDS011;10754;51.106;7.164;2022-12-28T06:17:01;0.50;;;0.50;;
21192;SDS011;10754;51.106;7.164;2022-12-28T06:19:26;1.03;;;0.47;;
21192;SDS011;10754;51.106;7.164;2022-12-28T06:21:52;2.00;;;0.63;;
21192;SDS011;10754;51.106;7.164;2022-12-28T06:24:17;1.10;;;0.60;;
21192;SDS011;10754;51.106;7.164;2022-12-28T06:26:43;0.87;;;0.50;;
21192;SDS011;10754;51.106;7.164;2022-12-28T06:29:09;0.83;;;0.50;;
21192;SDS011;10754;51.106;7.164;2022-12-28T06:31:36;1.17;;;0.50;;
21192;SDS011;10754;51.106;7.164;2022-12-28T06:34:04;1.33;;;0.77;;
21192;SDS011;10754;51.106;7.164;2022-12-28T06:36:41;0.80;;;0.60;;
21192;SDS011;10754;51.106;7.164;2022-12-28T06:39:09;1.10;;;0.50;;
21192;SDS011;10754;51.106;7.164;2022-12-28T06:41:36;0.63;;;0.50;;
21192;SDS011;10754;51.106;7.164;2022-12-28T06:44:06;0.97;;;0.50;;
21192;SDS011;10754;51.106;7.164;2022-12-28T06:46:32;1.37;;;0.57;;
21192;SDS011;10754;51.106;7.164;2022-12-28T06:48:58;1.63;;;0.50;;
21192;SDS011;10754;51.106;7.164;2022-12-28T06:51:25;0.57;;;0.37;;
21192;SDS011;10754;51.106;7.164;2022-12-28T06:53:55;1.70;;;0.53;;
21192;SDS011;10754;51.106;7.164;2022-12-28T06:56:23;2.03;;;0.80;;
21192;SDS011;10754;51.106;7.164;2022-12-28T06:58:50;1.67;;;0.60;;
21192;SDS011;10754;51.106;7.164;2022-12-28T07:01:21;1.50;;;0.70;;
21192;SDS011;10754;51.106;7.164;2022-12-28T07:03:50;0.93;;;0.60;;
21192;SDS011;10754;51.106;7.164;2022-12-28T07:06:19;1.37;;;0.80;;
21192;SDS011;10754;51.106;7.164;2022-12-28T07:08:46;1.53;;;0.80;;
21192;SDS011;10754;51.106;7.164;2022-12-28T07:11:14;0.80;;;0.53;;
21192;SDS011;10754;51.106;7.164;2022-12-28T07:13:42;1.70;;;0.70;;
21192;SDS011;10754;51.106;7.164;2022-12-28T07:16:15;1.73;;;0.70;;
21192;SDS011;10754;51.106;7.164;2022-12-28T07:18:42;1.03;;;0.50;;
21192;SDS011;10754;51.106;7.164;2022-12-28T07:21:11;0.60;;;0.50;;
21192;SDS011;10754;51.106;7.164;2022-12-28T07:23:39;1.03;;;0.70;;
21192;SDS011;10754;51.106;7.164;2022-12-28T07:26:05;0.93;;;0.50;;
21192;SDS011;10754;51.106;7.164;2022-12-28T07:28:35;1.57;;;0.63;;
21192;SDS011;10754;51.106;7.164;2022-12-28T07:31:21;0.83;;;0.50;;
21192;SDS011;10754;51.106;7.164;2022-12-28T07:33:49;1.10;;;0.70;;
21192;SDS011;10754;51.106;7.164;2022-12-28T07:36:17;0.97;;;0.50;;
21192;SDS011;10754;51.106;7.164;2022-12-28T07:38:44;1.00;;;0.63;;
21192;SDS011;10754;51.106;7.164;2022-12-28T07:41:20;0.90;;;0.50;;
21192;SDS011;10754;51.106;7.164;2022-12-28T07:43:47;1.63;;;0.87;;
21192;SDS011;10754;51.106;7.164;2022-12-28T07:48:44;1.50;;;0.50;;
21192;SDS011;10754;51.106;7.164;2022-12-28T07:51:11;0.90;;;0.60;;
21192;SDS011;10754;51.106;7.164;2022-12-28T07:53:39;1.03;;;0.70;;
21192;SDS011;10754;51.106;7.164;2022-12-28T07:56:05;1.60;;;0.77;;
21192;SDS011;10754;51.106;7.164;2022-12-28T07:58:32;1.37;;;0.70;;
21192;SDS011;10754;51.106;7.164;2022-12-28T08:01:02;1.03;;;0.60;;
21192;SDS011;10754;51.106;7.164;2022-12-28T08:03:32;0.77;;;0.40;;
21192;SDS011;10754;51.106;7.164;2022-12-28T08:06:01;1.17;;;0.70;;
21192;SDS011;10754;51.106;7.164;2022-12-28T08:08:38;1.10;;;0.50;;
21192;SDS011;10754;51.106;7.164;2022-12-28T08:11:09;0.93;;;0.50;;
21192;SDS011;10754;51.106;7.164;2022-12-28T08:13:39;1.77;;;0.60;;
21192;SDS011;10754;51.106;7.164;2022-12-28T08:16:12;0.87;;;0.63;;
21192;SDS011;10754;51.106;7.164;2022-12-28T08:18:39;1.37;;;0.50;;
21192;SDS011;10754;51.106;7.164;2022-12-28T08:21:06;1.53;;;0.87;;
21192;SDS011;10754;51.106;7.164;2022-12-28T08:23:35;1.37;;;0.67;;
21192;SDS011;10754;51.106;7.164;2022-12-28T08:26:06;0.93;;;0.60;;
21192;SDS011;10754;51.106;7.164;2022-12-28T08:28:36;1.57;;;0.60;;
21192;SDS011;10754;51.106;7.164;2022-12-28T08:31:04;0.73;;;0.43;;
21192;SDS011;10754;51.106;7.164;2022-12-28T08:33:34;0.83;;;0.57;;
21192;SDS011;10754;51.106;7.164;2022-12-28T08:36:00;1.70;;;0.70;;
21192;SDS011;10754;51.106;7.164;2022-12-28T08:38:26;1.63;;;0.70;;
21192;SDS011;10754;51.106;7.164;2022-12-28T08:40:55;1.60;;;0.60;;
21192;SDS011;10754;51.106;7.164;2022-12-28T08:43:22;1.30;;;0.57;;
21192;SDS011;10754;51.106;7.164;2022-12-28T08:45:58;1.80;;;0.70;;
21192;SDS011;10754;51.106;7.164;2022-12-28T08:48:25;1.23;;;0.70;;
21192;SDS011;10754;51.106;7.164;2022-12-28T08:50:51;0.83;;;0.40;;
21192;SDS011;10754;51.106;7.164;2022-12-28T08:53:18;1.07;;;0.53;;
21192;SDS011;10754;51.106;7.164;2022-12-28T08:55:43;0.93;;;0.50;;
21192;SDS011;10754;51.106;7.164;2022-12-28T08:58:09;1.37;;;0.50;;
21192;SDS011;10754;51.106;7.164;2022-12-28T09:00:34;1.00;;;0.57;;
21192;SDS011;10754;51.106;7.164;2022-12-28T09:03:00;1.50;;;0.47;;
21192;SDS011;10754;51.106;7.164;2022-12-28T09:05:25;1.57;;;0.60;;
21192;SDS011;10754;51.106;7.164;2022-12-28T09:07:51;0.87;;;0.57;;
21192;SDS011;10754;51.106;7.164;2022-12-28T09:10:16;0.60;;;0.40;;
21192;SDS011;10754;51.106;7.164;2022-12-28T09:12:42;0.70;;;0.30;;
21192;SDS011;10754;51.106;7.164;2022-12-28T09:15:08;0.80;;;0.50;;
21192;SDS011;10754;51.106;7.164;2022-12-28T09:17:34;2.13;;;0.73;;
21192;SDS011;10754;51.106;7.164;2022-12-28T09:19:59;0.77;;;0.40;;
21192;SDS011;10754;51.106;7.164;2022-12-28T09:22:25;1.00;;;0.60;;
21192;SDS011;10754;51.106;7.164;2022-12-28T09:24:50;1.13;;;0.40;;
21192;SDS011;10754;51.106;7.164;2022-12-28T09:27:16;2.00;;;0.50;;
21192;SDS011;10754;51.106;7.164;2022-12-28T09:29:41;0.50;;;0.37;;
21192;SDS011;10754;51.106;7.164;2022-12-28T09:32:07;1.13;;;0.60;;
21192;SDS011;10754;51.106;7.164;2022-12-28T09:34:32;0.40;;;0.40;;
21192;SDS011;10754;51.106;7.164;2022-12-28T09:36:59;0.83;;;0.40;;
21192;SDS011;10754;51.106;7.164;2022-12-28T09:39:26;1.93;;;0.60;;
21192;SDS011;10754;51.106;7.164;2022-12-28T09:42:02;1.07;;;0.63;;
21192;SDS011;10754;51.106;7.164;2022-12-28T09:44:42;0.50;;;0.40;;
21192;SDS011;10754;51.106;7.164;2022-12-28T09:47:23;1.37;;;0.50;;
21192;SDS011;10754;51.106;7.164;2022-12-28T09:50:21;0.57;;;0.30;;
21192;SDS011;10754;51.106;7.164;2022-12-28T09:55:56;0.60;;;0.30;;
21192;SDS011;10754;51.106;7.164;2022-12-28T09:58:24;2.30;;;0.57;;
21192;SDS011;10754;51.106;7.164;2022-12-28T10:00:53;0.63;;;0.40;;
21192;SDS011;10754;51.106;7.164;2022-12-28T10:05:58;0.63;;;0.40;;
21192;SDS011;10754;51.106;7.164;2022-12-28T10:08:24;0.73;;;0.40;;
21192;SDS011;10754;51.106;7.164;2022-12-28T10:10:52;0.53;;;0.30;;
21192;SDS011;10754;51.106;7.164;2022-12-28T10:13:23;0.93;;;0.30;;
21192;SDS011;10754;51.106;7.164;2022-12-28T10:15:50;1.13;;;0.70;;
21192;SDS011;10754;51.106;7.164;2022-12-28T10:18:21;1.73;;;0.63;;
21192;SDS011;10754;51.106;7.164;2022-12-28T10:20:49;0.37;;;0.30;;
21192;SDS011;10754;51.106;7.164;2022-12-28T10:23:17;0.93;;;0.43;;
21192;SDS011;10754;51.106;7.164;2022-12-28T10:25:46;0.70;;;0.60;;
21192;SDS011;10754;51.106;7.164;2022-12-28T10:28:14;0.93;;;0.40;;
21192;SDS011;10754;51.106;7.164;2022-12-28T10:30:46;0.80;;;0.47;;
21192;SDS011;10754;51.106;7.164;2022-12-28T10:33:25;0.53;;;0.30;;
21192;SDS011;10754;51.106;7.164;2022-12-28T10:35:51;0.50;;;0.40;;
21192;SDS011;10754;51.106;7.164;2022-12-28T10:38:21;0.77;;;0.40;;
21192;SDS011;10754;51.106;7.164;2022-12-28T10:41:04;1.13;;;0.60;;
21192;SDS011;10754;51.106;7.164;2022-12-28T10:43:34;1.57;;;0.50;;
21192;SDS011;10754;51.106;7.164;2022-12-28T10:46:01;1.00;;;0.40;;
21192;SDS011;10754;51.106;7.164;2022-12-28T10:48:34;0.60;;;0.40;;
21192;SDS011;10754;51.106;7.164;2022-12-28T10:58:29;0.90;;;0.40;;
21192;SDS011;10754;51.106;7.164;2022-12-28T11:00:55;0.90;;;0.50;;
21192;SDS011;10754;51.106;7.164;2022-12-28T11:03:24;0.60;;;0.53;;
21192;SDS011;10754;51.106;7.164;2022-12-28T11:06:17;2.17;;;0.50;;
21192;SDS011;10754;51.106;7.164;2022-12-28T11:08:43;0.80;;;0.40;;
21192;SDS011;10754;51.106;7.164;2022-12-28T11:11:17;1.53;;;0.50;;
21192;SDS011;10754;51.106;7.164;2022-12-28T11:13:45;1.53;;;0.80;;
21192;SDS011;10754;51.106;7.164;2022-12-28T11:16:15;1.23;;;0.60;;
21192;SDS011;10754;51.106;7.164;2022-12-28T11:18:41;0.43;;;0.40;;
21192;SDS011;10754;51.106;7.164;2022-12-28T11:21:10;2.33;;;0.93;;
21192;SDS011;10754;51.106;7.164;2022-12-28T11:23:42;1.27;;;0.60;;
21192;SDS011;10754;51.106;7.164;2022-12-28T11:26:11;1.90;;;0.70;;
21192;SDS011;10754;51.106;7.164;2022-12-28T11:28:38;0.77;;;0.63;;
21192;SDS011;10754;51.106;7.164;2022-12-28T11:31:06;1.10;;;0.50;;
21192;SDS011;10754;51.106;7.164;2022-12-28T11:33:41;0.77;;;0.50;;
21192;SDS011;10754;51.106;7.164;2022-12-28T11:36:13;2.47;;;1.00;;
21192;SDS011;10754;51.106;7.164;2022-12-28T11:38:44;1.53;;;1.00;;
21192;SDS011;10754;51.106;7.164;2022-12-28T11:41:12;0.90;;;0.60;;
21192;SDS011;10754;51.106;7.164;2022-12-28T11:44:00;1.10;;;0.70;;
21192;SDS011;10754;51.106;7.164;2022-12-28T11:48:59;1.17;;;0.70;;
21192;SDS011;10754;51.106;7.164;2022-12-28T11:51:28;1.27;;;0.73;;
21192;SDS011;10754;51.106;7.164;2022-12-28T11:54:01;1.10;;;0.80;;
21192;SDS011;10754;51.106;7.164;2022-12-28T11:57:12;1.60;;;0.90;;
21192;SDS011;10754;51.106;7.164;2022-12-28T11:59:21;1.37;;;0.50;;
21192;SDS011;10754;51.106;7.164;2022-12-28T12:01:52;3.13;;;0.90;;
21192;SDS011;10754;51.106;7.164;2022-12-28T12:04:27;1.47;;;0.83;;
21192;SDS011;10754;51.106;7.164;2022-12-28T12:12:00;1.70;;;0.80;;
21192;SDS011;10754;51.106;7.164;2022-12-28T12:14:31;1.47;;;0.83;;
21192;SDS011;10754;51.106;7.164;2022-12-28T12:17:03;1.40;;;0.77;;
21192;SDS011;10754;51.106;7.164;2022-12-28T12:19:35;2.57;;;1.00;;
21192;SDS011;10754;51.106;7.164;2022-12-28T12:22:20;1.03;;;0.80;;
21192;SDS011;10754;51.106;7.164;2022-12-28T12:24:54;1.83;;;1.00;;
21192;SDS011;10754;51.106;7.164;2022-12-28T12:30:05;1.57;;;1.10;;
21192;SDS011;10754;51.106;7.164;2022-12-28T12:32:52;1.77;;;0.70;;
21192;SDS011;10754;51.106;7.164;2022-12-28T12:35:33;2.13;;;1.33;;
21192;SDS011;10754;51.106;7.164;2022-12-28T12:38:11;2.23;;;1.10;;
21192;SDS011;10754;51.106;7.164;2022-12-28T12:44:28;1.17;;;0.73;;
21192;SDS011;10754;51.106;7.164;2022-12-28T12:55:54;2.03;;;1.00;;
21192;SDS011;10754;51.106;7.164;2022-12-28T13:01:12;1.67;;;0.90;;
21192;SDS011;10754;51.106;7.164;2022-12-28T13:03:52;1.93;;;1.00;;
21192;SDS011;10754;51.106;7.164;2022-12-28T13:06:22;2.20;;;1.03;;
21192;SDS011;10754;51.106;7.164;2022-12-28T13:08:53;1.70;;;1.10;;
21192;SDS011;10754;51.106;7.164;2022-12-28T13:11:23;2.07;;;0.87;;
21192;SDS011;10754;51.106;7.164;2022-12-28T13:13:50;1.00;;;0.60;;
21192;SDS011;10754;51.106;7.164;2022-12-28T13:16:19;2.50;;;1.00;;
21192;SDS011;10754;51.106;7.164;2022-12-28T13:18:56;2.57;;;1.10;;
21192;SDS011;10754;51.106;7.164;2022-12-28T13:21:25;0.70;;;0.67;;
21192;SDS011;10754;51.106;7.164;2022-12-28T13:23:53;1.03;;;0.93;;
21192;SDS011;10754;51.106;7.164;2022-12-28T13:26:21;1.93;;;0.60;;
21192;SDS011;10754;51.106;7.164;2022-12-28T13:28:59;0.83;;;0.70;;
21192;SDS011;10754;51.106;7.164;2022-12-28T13:31:31;3.83;;;0.93;;
21192;SDS011;10754;51.106;7.164;2022-12-28T13:34:00;1.57;;;0.60;;
21192;SDS011;10754;51.106;7.164;2022-12-28T13:36:27;1.07;;;0.60;;
21192;SDS011;10754;51.106;7.164;2022-12-28T13:39:04;1.17;;;0.60;;
21192;SDS011;10754;51.106;7.164;2022-12-28T13:41:36;0.73;;;0.60;;
21192;SDS011;10754;51.106;7.164;2022-12-28T13:47:19;1.60;;;0.77;;
21192;SDS011;10754;51.106;7.164;2022-12-28T13:55:02;0.97;;;0.60;;
21192;SDS011;10754;51.106;7.164;2022-12-28T13:57:31;1.33;;;0.57;;
21192;SDS011;10754;51.106;7.164;2022-12-28T13:59:59;1.20;;;0.60;;
21192;SDS011;10754;51.106;7.164;2022-12-28T14:02:25;0.80;;;0.50;;
21192;SDS011;10754;51.106;7.164;2022-12-28T14:04:52;1.40;;;0.80;;
21192;SDS011;10754;51.106;7.164;2022-12-28T14:07:18;2.73;;;0.90;;
21192;SDS011;10754;51.106;7.164;2022-12-28T14:09:47;1.80;;;0.97;;
21192;SDS011;10754;51.106;7.164;2022-12-28T14:12:13;0.90;;;0.70;;
21192;SDS011;10754;51.106;7.164;2022-12-28T14:14:39;1.33;;;0.90;;
21192;SDS011;10754;51.106;7.164;2022-12-28T14:17:06;2.07;;;0.90;;
21192;SDS011;10754;51.106;7.164;2022-12-28T14:19:33;1.40;;;0.80;;
21192;SDS011;10754;51.106;7.164;2022-12-28T14:21:59;4.37;;;0.70;;
21192;SDS011;10754;51.106;7.164;2022-12-28T14:24:24;1.20;;;0.80;;
21192;SDS011;10754;51.106;7.164;2022-12-28T14:26:54;1.40;;;0.70;;
21192;SDS011;10754;51.106;7.164;2022-12-28T14:29:26;3.03;;;1.03;;
21192;SDS011;10754;51.106;7.164;2022-12-28T14:31:59;1.60;;;0.77;;
21192;SDS011;10754;51.106;7.164;2022-12-28T14:34:27;1.10;;;0.80;;
21192;SDS011;10754;51.106;7.164;2022-12-28T14:36:55;1.63;;;1.10;;
21192;SDS011;10754;51.106;7.164;2022-12-28T14:39:32;1.47;;;0.90;;
21192;SDS011;10754;51.106;7.164;2022-12-28T14:42:01;1.63;;;0.90;;
21192;SDS011;10754;51.106;7.164;2022-12-28T14:44:29;1.53;;;0.83;;
21192;SDS011;10754;51.106;7.164;2022-12-28T14:49:58;1.63;;;0.90;;
21192;SDS011;10754;51.106;7.164;2022-12-28T14:55:21;2.53;;;1.00;;
21192;SDS011;10754;51.106;7.164;2022-12-28T14:57:59;1.83;;;0.70;;
21192;SDS011;10754;51.106;7.164;2022-12-28T15:00:31;2.03;;;1.10;;
21192;SDS011;10754;51.106;7.164;2022-12-28T15:03:12;1.30;;;0.90;;
21192;SDS011;10754;51.106;7.164;2022-12-28T15:05:44;2.63;;;0.90;;
21192;SDS011;10754;51.106;7.164;2022-12-28T15:08:18;1.67;;;0.83;;
21192;SDS011;10754;51.106;7.164;2022-12-28T15:10:48;1.07;;;0.80;;
21192;SDS011;10754;51.106;7.164;2022-12-28T15:13:19;1.43;;;0.90;;
21192;SDS011;10754;51.106;7.164;2022-12-28T15:15:53;1.53;;;0.90;;
21192;SDS011;10754;51.106;7.164;2022-12-28T15:18:19;3.23;;;1.00;;
21192;SDS011;10754;51.106;7.164;2022-12-28T15:20:45;1.27;;;0.80;;
21192;SDS011;10754;51.106;7.164;2022-12-28T15:23:11;2.37;;;0.90;;
21192;SDS011;10754;51.106;7.164;2022-12-28T15:25:36;2.10;;;1.20;;
21192;SDS011;10754;51.106;7.164;2022-12-28T15:28:02;2.40;;;0.60;;
21192;SDS011;10754;51.106;7.164;2022-12-28T15:30:28;2.50;;;1.00;;
21192;SDS011;10754;51.106;7.164;2022-12-28T15:32:54;1.90;;;1.00;;
21192;SDS011;10754;51.106;7.164;2022-12-28T15:35:19;2.17;;;0.80;;
21192;SDS011;10754;51.106;7.164;2022-12-28T15:37:45;1.57;;;1.00;;
21192;SDS011;10754;51.106;7.164;2022-12-28T15:40:10;1.27;;;0.77;;
21192;SDS011;10754;51.106;7.164;2022-12-28T15:42:36;0.90;;;0.70;;
21192;SDS011;10754;51.106;7.164;2022-12-28T15:45:02;0.93;;;0.80;;
21192;SDS011;10754;51.106;7.164;2022-12-28T15:47:28;2.40;;;1.10;;
21192;SDS011;10754;51.106;7.164;2022-12-28T15:49:53;0.80;;;0.70;;
21192;SDS011;10754;51.106;7.164;2022-12-28T15:52:19;1.93;;;1.03;;
21192;SDS011;10754;51.106;7.164;2022-12-28T15:54:44;1.57;;;0.93;;
21192;SDS011;10754;51.106;7.164;2022-12-28T15:57:10;1.20;;;0.90;;
21192;SDS011;10754;51.106;7.164;2022-12-28T15:59:36;3.00;;;1.10;;
21192;SDS011;10754;51.106;7.164;2022-12-28T16:02:02;1.93;;;0.87;;
21192;SDS011;10754;51.106;7.164;2022-12-28T16:04:28;3.40;;;1.00;;
21192;SDS011;10754;51.106;7.164;2022-12-28T16:06:53;2.00;;;1.00;;
21192;SDS011;10754;51.106;7.164;2022-12-28T16:09:19;2.43;;;0.97;;
21192;SDS011;10754;51.106;7.164;2022-12-28T16:11:44;1.30;;;0.83;;
21192;SDS011;10754;51.106;7.164;2022-12-28T16:14:11;0.97;;;0.70;;
21192;SDS011;10754;51.106;7.164;2022-12-28T16:16:39;1.40;;;0.80;;
21192;SDS011;10754;51.106;7.164;2022-12-28T16:19:05;2.73;;;1.00;;
21192;SDS011;10754;51.106;7.164;2022-12-28T16:21:32;1.67;;;0.80;;